createdAt,value
2018-06-03T00:00:06.048Z,80.90
2018-06-03T00:01:06.551Z,80.80
2018-06-03T00:02:08.719Z,81.30
2018-06-03T00:03:06.259Z,81.30
2018-06-03T00:04:06.889Z,81.50
2018-06-03T00:05:06.076Z,81.70
2018-06-03T00:06:08.517Z,81.80
2018-06-03T00:07:06.073Z,81.70
2018-06-03T00:08:05.940Z,81.40
2018-06-03T00:09:08.315Z,81.20
2018-06-03T00:10:10.933Z,81.20
2018-06-03T00:11:06.281Z,81.20
2018-06-03T00:12:11.017Z,81.60
2018-06-03T00:13:06.650Z,81.50
2018-06-03T00:14:11.591Z,81.70
2018-06-03T00:15:06.336Z,81.70
2018-06-03T00:16:06.115Z,81.50
2018-06-03T00:17:08.693Z,81.30
2018-06-03T00:18:06.197Z,81.20
2018-06-03T00:19:05.760Z,81.30
2018-06-03T00:20:10.921Z,81.40
2018-06-03T00:21:10.464Z,81.40
2018-06-03T00:22:11.012Z,81.60
2018-06-03T00:23:05.791Z,81.70
2018-06-03T00:24:10.821Z,81.70
2018-06-03T00:25:06.948Z,81.80
2018-06-03T00:26:06.234Z,81.90
2018-06-03T00:27:05.956Z,81.90
2018-06-03T00:28:10.898Z,81.90
2018-06-03T00:29:09.008Z,81.80
2018-06-03T00:30:05.883Z,81.70
2018-06-03T00:31:05.888Z,81.90
2018-06-03T00:32:10.851Z,81.60
2018-06-03T00:33:05.972Z,81.60
2018-06-03T00:34:06.230Z,81.50
2018-06-03T00:35:11.011Z,81.70
2018-06-03T00:36:11.475Z,81.50
2018-06-03T00:37:06.541Z,81.50
2018-06-03T00:38:12.259Z,81.60
2018-06-03T00:39:05.924Z,81.60
2018-06-03T00:40:08.498Z,81.80
2018-06-03T00:41:06.392Z,81.80
2018-06-03T00:42:05.976Z,82.00
2018-06-03T00:43:05.851Z,81.70
2018-06-03T00:44:05.985Z,81.60
2018-06-03T00:45:05.624Z,81.40
2018-06-03T00:46:08.958Z,81.60
2018-06-03T00:47:11.090Z,81.90
2018-06-03T00:48:11.419Z,82.10
2018-06-03T00:49:11.309Z,81.90
2018-06-03T00:50:05.866Z,81.90
2018-06-03T00:51:05.494Z,81.80
2018-06-03T00:52:10.753Z,81.90
2018-06-03T00:53:06.197Z,81.70
2018-06-03T00:54:06.284Z,81.50
2018-06-03T00:55:06.073Z,81.60
2018-06-03T00:56:11.071Z,81.30
2018-06-03T00:57:05.656Z,81.30
2018-06-03T00:58:13.266Z,81.40
2018-06-03T00:59:06.196Z,81.40
2018-06-03T01:00:08.477Z,82.10
2018-06-03T01:01:06.045Z,82.20
2018-06-03T01:02:08.301Z,82.10
2018-06-03T01:03:10.987Z,82.10
2018-06-03T01:04:10.720Z,82.20
2018-06-03T01:05:05.975Z,82.20
2018-06-03T01:06:05.678Z,82.10
2018-06-03T01:07:06.348Z,82.00
2018-06-03T01:08:06.186Z,81.90
2018-06-03T01:09:05.935Z,82.00
2018-06-03T01:10:10.815Z,82.40
2018-06-03T01:11:08.807Z,82.50
2018-06-03T01:12:11.485Z,82.50
2018-06-03T01:13:11.072Z,82.50
2018-06-03T01:14:10.720Z,82.40
2018-06-03T01:15:06.660Z,82.20
2018-06-03T01:16:06.498Z,82.30
2018-06-03T01:17:08.836Z,82.10
2018-06-03T01:18:11.595Z,82.00
2018-06-03T01:19:07.153Z,82.00
2018-06-03T01:20:11.041Z,81.90
2018-06-03T01:21:10.773Z,81.90
2018-06-03T01:22:14.102Z,81.90
2018-06-03T01:23:05.981Z,81.90
2018-06-03T01:24:06.466Z,81.80
2018-06-03T01:25:11.389Z,81.90
2018-06-03T01:26:11.100Z,81.90
2018-06-03T01:27:05.754Z,81.90
2018-06-03T01:28:06.068Z,81.70
2018-06-03T01:29:06.023Z,81.90
2018-06-03T01:30:08.578Z,82.40
2018-06-03T01:31:06.369Z,82.20
2018-06-03T01:32:11.162Z,82.40
2018-06-03T01:33:06.017Z,82.60
2018-06-03T01:34:10.875Z,82.50
2018-06-03T01:35:06.486Z,82.40
2018-06-03T01:36:11.567Z,82.10
2018-06-03T01:37:06.039Z,82.10
2018-06-03T01:38:06.102Z,82.40
2018-06-03T01:39:08.534Z,82.40
2018-06-03T01:40:08.570Z,82.20
2018-06-03T01:41:06.084Z,82.20
2018-06-03T01:42:10.869Z,82.20
2018-06-03T01:43:09.084Z,82.40
2018-06-03T01:44:11.375Z,82.30
2018-06-03T01:45:10.832Z,82.20
2018-06-03T01:46:11.498Z,82.40
2018-06-03T01:47:06.055Z,82.40
2018-06-03T01:48:13.413Z,82.30
2018-06-03T01:49:06.103Z,82.20
2018-06-03T01:50:05.558Z,82.30
2018-06-03T01:51:06.469Z,82.40
2018-06-03T01:52:06.446Z,82.30
2018-06-03T01:53:08.671Z,82.40
2018-06-03T01:54:06.665Z,82.40
2018-06-03T01:55:05.852Z,82.60
2018-06-03T01:56:10.929Z,82.90
2018-06-03T01:57:11.496Z,82.80
2018-06-03T01:58:08.602Z,82.70
2018-06-03T01:59:06.587Z,82.70
2018-06-03T02:00:08.668Z,82.60
2018-06-03T02:01:06.489Z,82.60
2018-06-03T02:02:13.772Z,82.20
2018-06-03T02:03:06.728Z,82.30
2018-06-03T02:04:06.330Z,82.20
2018-06-03T02:05:05.935Z,82.40
2018-06-03T02:06:05.900Z,82.50
2018-06-03T02:07:05.678Z,82.40
2018-06-03T02:08:05.851Z,82.80
2018-06-03T02:09:06.033Z,82.70
2018-06-03T02:10:13.283Z,82.60
2018-06-03T02:11:10.946Z,82.70
2018-06-03T02:12:06.300Z,82.60
2018-06-03T02:13:05.935Z,82.60
2018-06-03T02:14:06.163Z,82.40
2018-06-03T02:15:08.781Z,82.20
2018-06-03T02:16:08.867Z,82.20
2018-06-03T02:17:09.158Z,82.40
2018-06-03T02:18:06.212Z,82.40
2018-06-03T02:19:10.584Z,82.70
2018-06-03T02:20:08.640Z,82.80
2018-06-03T02:21:11.270Z,82.70
2018-06-03T02:22:05.847Z,82.70
2018-06-03T02:23:11.246Z,82.40
2018-06-03T02:24:06.417Z,82.40
2018-06-03T02:25:08.538Z,82.40
2018-06-03T02:26:06.499Z,82.40
2018-06-03T02:27:08.926Z,82.70
2018-06-03T02:28:06.388Z,82.70
2018-06-03T02:29:06.306Z,83.00
2018-06-03T02:30:07.046Z,82.90
2018-06-03T02:31:05.607Z,82.70
2018-06-03T02:32:05.907Z,82.40
2018-06-03T02:33:06.124Z,82.60
2018-06-03T02:34:05.894Z,82.60
2018-06-03T02:35:05.686Z,82.70
2018-06-03T02:36:11.806Z,82.90
2018-06-03T02:37:13.853Z,83.10
2018-06-03T02:38:08.888Z,83.10
2018-06-03T02:39:06.913Z,83.00
2018-06-03T02:40:05.807Z,83.10
2018-06-03T02:41:08.356Z,83.30
2018-06-03T02:42:08.395Z,83.20
2018-06-03T02:43:06.071Z,83.30
2018-06-03T02:44:10.577Z,83.20
2018-06-03T02:45:06.485Z,83.30
2018-06-03T02:46:11.218Z,83.30
2018-06-03T02:47:05.792Z,83.10
2018-06-03T02:48:05.890Z,83.20
2018-06-03T02:49:05.834Z,83.20
2018-06-03T02:50:08.294Z,83.30
2018-06-03T02:51:05.914Z,83.30
2018-06-03T02:52:06.163Z,83.20
2018-06-03T02:53:10.924Z,83.00
2018-06-03T02:54:06.182Z,82.80
2018-06-03T02:55:06.206Z,82.80
2018-06-03T02:56:05.981Z,83.00
2018-06-03T02:57:06.347Z,83.00
2018-06-03T02:58:06.187Z,83.40
2018-06-03T02:59:09.055Z,83.30
2018-06-03T03:00:10.706Z,83.40
2018-06-03T03:01:06.450Z,83.20
2018-06-03T03:02:06.124Z,83.20
2018-06-03T03:03:10.631Z,83.20
2018-06-03T03:04:08.704Z,83.20
2018-06-03T03:05:06.527Z,83.20
2018-06-03T03:06:06.310Z,83.20
2018-06-03T03:07:06.976Z,83.00
2018-06-03T03:08:05.789Z,83.00
2018-06-03T03:09:09.007Z,83.50
2018-06-03T03:10:10.660Z,83.30
2018-06-03T03:11:06.184Z,83.30
2018-06-03T03:12:06.010Z,83.30
2018-06-03T03:13:06.126Z,83.50
2018-06-03T03:14:06.179Z,83.60
2018-06-03T03:15:05.760Z,83.50
2018-06-03T03:16:06.723Z,83.30
2018-06-03T03:17:11.408Z,83.40
2018-06-03T03:18:08.458Z,83.30
2018-06-03T03:19:05.897Z,83.30
2018-06-03T03:20:11.048Z,83.20
2018-06-03T03:21:06.807Z,83.20
2018-06-03T03:22:08.160Z,83.50
2018-06-03T03:23:08.369Z,83.50
2018-06-03T03:24:11.383Z,83.60
2018-06-03T03:25:11.026Z,83.60
2018-06-03T03:26:08.137Z,83.60
2018-06-03T03:27:06.240Z,83.60
2018-06-03T03:28:06.449Z,83.80
2018-06-03T03:29:08.765Z,83.50
2018-06-03T03:30:12.898Z,83.40
2018-06-03T03:31:08.414Z,83.20
2018-06-03T03:32:05.911Z,83.20
2018-06-03T03:33:05.563Z,83.10
2018-06-03T03:34:08.321Z,83.50
2018-06-03T03:35:06.994Z,83.50
2018-06-03T03:36:08.371Z,83.40
2018-06-03T03:37:05.975Z,83.40
2018-06-03T03:38:05.882Z,83.30
2018-06-03T03:39:06.660Z,83.30
2018-06-03T03:40:06.131Z,83.20
2018-06-03T03:41:08.500Z,84.00
2018-06-03T03:42:10.795Z,84.00
2018-06-03T03:43:06.204Z,84.00
2018-06-03T03:44:08.563Z,84.00
2018-06-03T03:45:06.361Z,84.00
2018-06-03T03:46:06.167Z,84.00
2018-06-03T03:47:10.769Z,84.20
2018-06-03T03:48:06.395Z,84.30
2018-06-03T03:49:06.236Z,84.50
2018-06-03T03:50:06.181Z,84.30
2018-06-03T03:51:08.286Z,84.50
2018-06-03T03:52:05.816Z,84.50
2018-06-03T03:53:06.214Z,85.00
2018-06-03T03:54:06.281Z,85.10
2018-06-03T03:55:08.222Z,84.90
2018-06-03T03:56:06.170Z,84.90
2018-06-03T03:57:08.263Z,85.00
2018-06-03T03:58:10.949Z,85.00
2018-06-03T03:59:08.023Z,84.70
2018-06-03T04:00:09.168Z,84.60
2018-06-03T04:01:08.197Z,84.50
2018-06-03T04:02:13.272Z,84.70
2018-06-03T04:03:05.832Z,84.70
2018-06-03T04:04:05.562Z,84.60
2018-06-03T04:05:06.425Z,84.50
2018-06-03T04:06:06.118Z,84.60
2018-06-03T04:07:06.151Z,84.70
2018-06-03T04:08:06.159Z,84.60
2018-06-03T04:09:06.452Z,84.50
2018-06-03T04:10:08.578Z,84.80
2018-06-03T04:11:06.223Z,84.80
2018-06-03T04:12:08.920Z,84.80
2018-06-03T04:13:05.925Z,84.90
2018-06-03T04:14:05.782Z,85.00
2018-06-03T04:15:08.938Z,84.80
2018-06-03T04:16:11.569Z,84.90
2018-06-03T04:17:08.611Z,85.10
2018-06-03T04:18:08.723Z,85.10
2018-06-03T04:19:06.435Z,85.10
2018-06-03T04:20:08.625Z,85.30
2018-06-03T04:21:06.274Z,85.30
2018-06-03T04:22:06.157Z,85.20
2018-06-03T04:23:06.635Z,85.30
2018-06-03T04:24:06.570Z,85.20
2018-06-03T04:25:11.747Z,84.90
2018-06-03T04:26:08.442Z,84.80
2018-06-03T04:27:07.299Z,84.90
2018-06-03T04:28:11.002Z,84.90
2018-06-03T04:29:06.654Z,84.80
2018-06-03T04:30:06.362Z,84.90
2018-06-03T04:31:06.651Z,85.20
2018-06-03T04:32:06.503Z,85.10
2018-06-03T04:33:06.548Z,85.00
2018-06-03T04:34:06.621Z,85.00
2018-06-03T04:35:07.011Z,85.00
2018-06-03T04:36:08.415Z,84.80
2018-06-03T04:37:08.491Z,84.80
2018-06-03T04:38:06.670Z,84.80
2018-06-03T04:39:15.600Z,84.70
2018-06-03T04:40:06.367Z,84.70
2018-06-03T04:41:06.795Z,84.60
2018-06-03T04:42:09.227Z,84.30
2018-06-03T04:43:06.275Z,84.30
2018-06-03T04:44:08.815Z,83.70
2018-06-03T04:45:08.979Z,83.60
2018-06-03T04:46:06.478Z,83.60
2018-06-03T04:47:06.211Z,83.20
2018-06-03T04:48:08.373Z,82.90
2018-06-03T04:49:05.736Z,82.90
2018-06-03T04:50:08.413Z,82.50
2018-06-03T04:51:05.981Z,82.40
2018-06-03T04:52:06.082Z,82.10
2018-06-03T04:53:10.730Z,81.50
2018-06-03T04:54:06.125Z,81.50
2018-06-03T04:55:05.887Z,81.10
2018-06-03T04:56:11.060Z,80.80
2018-06-03T04:57:05.550Z,80.80
2018-06-03T04:58:06.346Z,80.50
2018-06-03T04:59:06.321Z,80.40
2018-06-03T05:00:07.250Z,79.90
2018-06-03T05:01:06.258Z,79.80
2018-06-03T05:02:08.346Z,79.30
2018-06-03T05:03:05.890Z,79.30
2018-06-03T05:04:11.339Z,79.00
2018-06-03T05:05:10.864Z,78.60
2018-06-03T05:06:08.954Z,78.20
2018-06-03T05:07:06.493Z,78.20
2018-06-03T05:08:06.213Z,77.80
2018-06-03T05:09:06.919Z,77.70
2018-06-03T05:10:11.225Z,77.40
2018-06-03T05:11:08.275Z,76.90
2018-06-03T05:12:06.100Z,76.90
2018-06-03T05:13:06.297Z,76.60
2018-06-03T05:14:08.458Z,76.10
2018-06-03T05:15:06.104Z,76.10
2018-06-03T05:16:06.259Z,75.90
2018-06-03T05:17:06.397Z,75.50
2018-06-03T05:18:06.416Z,75.60
2018-06-03T05:19:06.698Z,75.20
2018-06-03T05:20:05.955Z,75.20
2018-06-03T05:21:06.448Z,75.30
2018-06-03T05:22:06.616Z,75.00
2018-06-03T05:23:11.400Z,73.70
2018-06-03T05:24:06.493Z,73.60
2018-06-03T05:25:06.141Z,73.00
2018-06-03T05:26:08.419Z,72.40
2018-06-03T05:27:06.238Z,72.20
2018-06-03T05:28:08.606Z,72.90
2018-06-03T05:29:06.113Z,72.90
2018-06-03T05:30:10.962Z,72.90
2018-06-03T05:31:10.719Z,73.10
2018-06-03T05:32:08.844Z,73.00
2018-06-03T05:33:06.358Z,72.90
2018-06-03T05:34:11.069Z,72.80
2018-06-03T05:35:05.775Z,72.70
2018-06-03T05:36:10.576Z,72.10
2018-06-03T05:37:06.337Z,72.00
2018-06-03T05:38:05.953Z,72.20
2018-06-03T05:39:06.170Z,72.10
2018-06-03T05:40:08.426Z,72.10
2018-06-03T05:41:06.307Z,72.10
2018-06-03T05:42:06.318Z,72.10
2018-06-03T05:43:06.533Z,72.10
2018-06-03T05:44:06.331Z,72.20
2018-06-03T05:45:08.950Z,72.50
2018-06-03T05:46:06.724Z,72.60
2018-06-03T05:47:09.332Z,72.20
2018-06-03T05:48:06.144Z,72.20
2018-06-03T05:49:08.520Z,71.80
2018-06-03T05:50:06.203Z,71.90
2018-06-03T05:51:08.600Z,71.30
2018-06-03T05:52:09.013Z,70.60
2018-06-03T05:53:08.255Z,70.40
2018-06-03T05:54:10.940Z,70.00
2018-06-03T05:55:11.646Z,70.00
2018-06-03T05:56:07.029Z,69.80
2018-06-03T05:57:10.945Z,69.60
2018-06-03T05:58:07.590Z,69.30
2018-06-03T05:59:06.173Z,68.90
2018-06-03T06:00:10.822Z,68.40
2018-06-03T06:01:06.229Z,68.30
2018-06-03T06:02:13.482Z,67.70
2018-06-03T06:03:11.127Z,67.70
2018-06-03T06:04:08.385Z,66.20
2018-06-03T06:05:08.656Z,66.10
2018-06-03T06:06:08.799Z,66.70
2018-06-03T06:07:13.861Z,66.70
2018-06-03T06:08:06.372Z,66.80
2018-06-03T06:09:06.323Z,66.80
2018-06-03T06:10:12.180Z,66.40
2018-06-03T06:11:08.313Z,64.50
2018-06-03T06:12:05.930Z,64.40
2018-06-03T06:13:05.913Z,63.70
2018-06-03T06:14:05.835Z,63.80
2018-06-03T06:15:06.651Z,63.80
2018-06-03T06:16:06.410Z,63.80
2018-06-03T06:17:06.312Z,63.60
2018-06-03T06:18:06.321Z,61.00
2018-06-03T06:19:08.591Z,60.50
2018-06-03T06:20:06.073Z,60.30
2018-06-03T06:21:06.554Z,60.30
2018-06-03T06:22:08.967Z,58.60
2018-06-03T06:23:06.850Z,58.70
2018-06-03T06:24:05.520Z,58.90
2018-06-03T06:25:14.191Z,58.20
2018-06-03T06:26:05.853Z,58.30
2018-06-03T06:27:09.304Z,57.70
2018-06-03T06:28:06.298Z,57.70
2018-06-03T06:29:06.423Z,57.60
2018-06-03T06:30:10.611Z,57.50
2018-06-03T06:31:06.596Z,57.50
2018-06-03T06:32:06.700Z,57.50
2018-06-03T06:33:06.940Z,57.10
2018-06-03T06:34:08.522Z,56.50
2018-06-03T06:35:05.976Z,56.60
2018-06-03T06:36:06.179Z,56.10
2018-06-03T06:37:06.069Z,55.70
2018-06-03T06:38:10.778Z,55.90
2018-06-03T06:39:06.380Z,55.70
2018-06-03T06:40:06.518Z,55.80
2018-06-03T06:41:05.756Z,55.20
2018-06-03T06:42:10.715Z,54.90
2018-06-03T06:43:06.096Z,54.70
2018-06-03T06:44:07.467Z,54.40
2018-06-03T06:45:06.102Z,54.60
2018-06-03T06:46:10.795Z,54.60
2018-06-03T06:47:06.343Z,54.20
2018-06-03T06:48:06.005Z,54.40
2018-06-03T06:49:05.581Z,54.40
2018-06-03T06:50:06.732Z,53.80
2018-06-03T06:51:05.864Z,53.50
2018-06-03T06:52:10.808Z,52.30
2018-06-03T06:53:08.391Z,52.70
2018-06-03T06:54:08.521Z,52.10
2018-06-03T06:55:06.126Z,52.20
2018-06-03T06:56:06.097Z,51.80
2018-06-03T06:57:15.889Z,48.40
2018-06-03T06:58:09.092Z,48.50
2018-06-03T06:59:05.885Z,48.50
2018-06-03T07:00:05.960Z,48.50
2018-06-03T07:01:10.726Z,48.20
2018-06-03T07:02:08.809Z,47.20
2018-06-03T07:03:08.939Z,47.50
2018-06-03T07:04:06.606Z,47.50
2018-06-03T07:05:06.319Z,47.20
2018-06-03T07:06:08.568Z,47.40
2018-06-03T07:07:11.127Z,47.10
2018-06-03T07:08:05.877Z,47.10
2018-06-03T07:09:05.893Z,46.80
2018-06-03T07:10:06.086Z,46.60
2018-06-03T07:11:10.944Z,46.00
2018-06-03T07:12:09.167Z,46.30
2018-06-03T07:13:08.391Z,46.40
2018-06-03T07:14:13.725Z,46.40
2018-06-03T07:15:06.323Z,46.40
2018-06-03T07:16:08.597Z,45.30
2018-06-03T07:17:08.732Z,45.30
2018-06-03T07:18:08.819Z,45.30
2018-06-03T07:19:08.912Z,45.80
2018-06-03T07:20:07.194Z,45.80
2018-06-03T07:21:06.225Z,45.80
2018-06-03T07:22:06.685Z,46.00
2018-06-03T07:23:06.309Z,45.80
2018-06-03T07:24:06.250Z,45.50
2018-06-03T07:25:06.086Z,45.30
2018-06-03T07:26:06.196Z,45.60
2018-06-03T07:27:08.404Z,44.80
2018-06-03T07:28:05.919Z,44.80
2018-06-03T07:29:08.306Z,44.20
2018-06-03T07:30:08.431Z,44.20
2018-06-03T07:31:08.520Z,44.50
2018-06-03T07:32:06.239Z,44.50
2018-06-03T07:33:06.937Z,44.50
2018-06-03T07:34:05.693Z,19.30
2018-06-03T07:35:13.344Z,45.00
2018-06-03T07:36:11.144Z,44.80
2018-06-03T07:37:11.001Z,45.00
2018-06-03T07:38:09.100Z,44.40
2018-06-03T07:39:08.278Z,44.70
2018-06-03T07:40:10.789Z,44.30
2018-06-03T07:41:09.006Z,44.10
2018-06-03T07:42:08.285Z,44.10
2018-06-03T07:43:10.793Z,44.10
2018-06-03T07:44:12.317Z,43.80
2018-06-03T07:45:05.924Z,43.80
2018-06-03T07:46:10.717Z,43.50
2018-06-03T07:47:06.239Z,43.50
2018-06-03T07:48:06.004Z,43.80
2018-06-03T07:49:08.570Z,43.30
2018-06-03T07:50:06.111Z,43.30
2018-06-03T07:51:06.193Z,42.80
2018-06-03T07:52:08.623Z,43.20
2018-06-03T07:53:06.189Z,43.20
2018-06-03T07:54:06.040Z,43.40
2018-06-03T07:55:08.494Z,42.80
2018-06-03T07:56:05.916Z,42.70
2018-06-03T07:57:05.558Z,43.20
2018-06-03T07:58:06.316Z,42.80
2018-06-03T07:59:06.176Z,43.10
2018-06-03T08:00:06.303Z,43.40
2018-06-03T08:01:08.553Z,44.60
2018-06-03T08:02:06.526Z,44.60
2018-06-03T08:03:06.206Z,44.50
2018-06-03T08:04:06.477Z,44.30
2018-06-03T08:05:06.597Z,44.00
2018-06-03T08:06:06.659Z,44.20
2018-06-03T08:07:09.039Z,43.70
2018-06-03T08:08:06.000Z,43.70
2018-06-03T08:09:05.990Z,43.70
2018-06-03T08:10:10.784Z,44.20
2018-06-03T08:11:06.328Z,44.20
2018-06-03T08:12:10.986Z,43.90
2018-06-03T08:13:11.066Z,43.80
2018-06-03T08:14:05.734Z,43.60
2018-06-03T08:15:06.067Z,43.10
2018-06-03T08:16:08.430Z,43.70
2018-06-03T08:17:06.384Z,43.70
2018-06-03T08:18:08.320Z,44.10
2018-06-03T08:19:06.073Z,43.60
2018-06-03T08:20:05.963Z,44.50
2018-06-03T08:21:10.685Z,45.30
2018-06-03T08:22:09.016Z,45.30
2018-06-03T08:23:10.664Z,45.30
2018-06-03T08:24:06.259Z,44.90
2018-06-03T08:25:08.456Z,43.10
2018-06-03T08:26:06.016Z,43.20
2018-06-03T08:27:11.068Z,42.30
2018-06-03T08:28:05.999Z,42.30
2018-06-03T08:29:05.752Z,42.60
2018-06-03T08:30:05.665Z,43.30
2018-06-03T08:31:06.990Z,43.80
2018-06-03T08:32:08.138Z,43.80
2018-06-03T08:33:06.256Z,43.80
2018-06-03T08:34:08.682Z,42.50
2018-06-03T08:35:06.754Z,42.50
2018-06-03T08:36:09.076Z,43.30
2018-06-03T08:37:08.524Z,43.40
2018-06-03T08:38:06.393Z,43.50
2018-06-03T08:39:06.026Z,41.40
2018-06-03T08:40:11.009Z,41.90
2018-06-03T08:41:05.639Z,41.90
2018-06-03T08:42:08.524Z,43.60
2018-06-03T08:43:08.625Z,43.50
2018-06-03T08:44:08.637Z,43.00
2018-06-03T08:45:06.230Z,43.00
2018-06-03T08:46:08.394Z,43.90
2018-06-03T08:47:10.903Z,43.30
2018-06-03T08:48:07.372Z,43.20
2018-06-03T08:49:06.659Z,42.90
2018-06-03T08:50:06.371Z,43.40
2018-06-03T08:51:06.728Z,42.30
2018-06-03T08:52:06.765Z,42.70
2018-06-03T08:53:10.662Z,42.50
2018-06-03T08:54:06.124Z,42.50
2018-06-03T08:55:06.009Z,41.80
2018-06-03T08:56:06.437Z,41.70
2018-06-03T08:57:06.585Z,41.00
2018-06-03T08:58:06.683Z,41.70
2018-06-03T08:59:06.499Z,41.50
2018-06-03T09:00:08.644Z,41.40
2018-06-03T09:01:08.975Z,41.70
2018-06-03T09:02:05.590Z,41.70
2018-06-03T09:03:08.855Z,41.60
2018-06-03T09:04:09.091Z,41.30
2018-06-03T09:05:05.850Z,41.20
2018-06-03T09:06:06.000Z,41.10
2018-06-03T09:07:05.958Z,41.80
2018-06-03T09:08:05.559Z,42.30
2018-06-03T09:09:06.381Z,42.80
2018-06-03T09:10:06.604Z,42.20
2018-06-03T09:11:06.184Z,42.80
2018-06-03T09:12:07.104Z,43.10
2018-06-03T09:13:06.237Z,43.60
2018-06-03T09:14:06.306Z,43.90
2018-06-03T09:15:05.984Z,44.00
2018-06-03T09:16:10.918Z,44.40
2018-06-03T09:17:06.591Z,44.40
2018-06-03T09:18:08.251Z,44.50
2018-06-03T09:19:07.091Z,44.50
2018-06-03T09:20:05.980Z,44.70
2018-06-03T09:21:10.737Z,44.70
2018-06-03T09:22:06.489Z,44.70
2018-06-03T09:23:08.670Z,44.70
2018-06-03T09:24:06.207Z,44.70
2018-06-03T09:25:06.628Z,44.70
2018-06-03T09:26:12.691Z,45.10
2018-06-03T09:27:06.354Z,45.10
2018-06-03T09:28:06.149Z,44.90
2018-06-03T09:29:06.305Z,44.80
2018-06-03T09:30:06.078Z,44.50
2018-06-03T09:31:05.792Z,44.10
2018-06-03T09:32:11.290Z,43.10
2018-06-03T09:33:06.837Z,43.10
2018-06-03T09:34:06.557Z,42.90
2018-06-03T09:35:06.288Z,42.80
2018-06-03T09:36:08.663Z,43.00
2018-06-03T09:37:06.672Z,43.00
2018-06-03T09:38:11.417Z,43.40
2018-06-03T09:39:11.111Z,44.00
2018-06-03T09:40:06.125Z,44.00
2018-06-03T09:41:06.292Z,44.20
2018-06-03T09:42:06.239Z,44.20
2018-06-03T09:43:06.015Z,44.40
2018-06-03T09:44:11.372Z,44.50
2018-06-03T09:45:11.049Z,43.30
2018-06-03T09:46:10.620Z,43.20
2018-06-03T09:47:08.757Z,43.70
2018-06-03T09:48:11.485Z,43.80
2018-06-03T09:49:06.179Z,44.40
2018-06-03T09:50:21.270Z,45.10
2018-06-03T09:51:05.895Z,45.10
2018-06-03T09:52:10.895Z,45.10
2018-06-03T09:53:06.715Z,43.80
2018-06-03T09:54:06.472Z,43.90
2018-06-03T09:55:06.575Z,43.70
2018-06-03T09:56:06.575Z,43.70
2018-06-03T09:57:13.785Z,43.70
2018-06-03T09:58:11.406Z,43.70
2018-06-03T09:59:06.007Z,42.70
2018-06-03T10:00:08.265Z,41.80
2018-06-03T10:01:08.367Z,42.20
2018-06-03T10:02:06.218Z,42.20
2018-06-03T10:03:05.818Z,42.70
2018-06-03T10:04:05.679Z,42.70
2018-06-03T10:05:09.028Z,42.00
2018-06-03T10:06:05.863Z,42.00
2018-06-03T10:07:05.681Z,42.20
2018-06-03T10:08:07.063Z,42.40
2018-06-03T10:09:05.749Z,42.80
2018-06-03T10:10:06.382Z,42.70
2018-06-03T10:11:06.112Z,43.00
2018-06-03T10:12:08.488Z,43.50
2018-06-03T10:13:06.408Z,43.60
2018-06-03T10:14:08.204Z,44.10
2018-06-03T10:15:10.761Z,44.10
2018-06-03T10:16:08.766Z,43.80
2018-06-03T10:17:06.496Z,43.80
2018-06-03T10:18:11.577Z,43.20
2018-06-03T10:19:06.497Z,43.20
2018-06-03T10:20:06.313Z,43.50
2018-06-03T10:21:08.720Z,42.80
2018-06-03T10:22:06.627Z,42.70
2018-06-03T10:23:11.279Z,42.50
2018-06-03T10:24:07.051Z,42.20
2018-06-03T10:25:08.307Z,42.70
2018-06-03T10:26:06.051Z,42.70
2018-06-03T10:27:06.221Z,43.10
2018-06-03T10:28:06.149Z,41.60
2018-06-03T10:29:06.196Z,41.60
2018-06-03T10:30:11.168Z,40.30
2018-06-03T10:31:05.970Z,40.70
2018-06-03T10:32:05.670Z,41.10
2018-06-03T10:33:08.641Z,42.00
2018-06-03T10:34:08.637Z,42.40
2018-06-03T10:35:08.692Z,42.10
2018-06-03T10:36:08.935Z,41.60
2018-06-03T10:37:06.404Z,41.70
2018-06-03T10:38:06.375Z,41.80
2018-06-03T10:39:06.674Z,42.30
2018-06-03T10:40:05.644Z,42.40
2018-06-03T10:41:07.061Z,41.70
2018-06-03T10:42:08.526Z,40.30
2018-06-03T10:43:11.240Z,39.60
2018-06-03T10:44:11.555Z,39.60
2018-06-03T10:45:06.044Z,39.60
2018-06-03T10:46:05.892Z,39.50
2018-06-03T10:47:06.025Z,38.80
2018-06-03T10:48:06.534Z,39.00
2018-06-03T10:49:06.297Z,37.70
2018-06-03T10:50:06.114Z,37.50
2018-06-03T10:51:05.828Z,37.10
2018-06-03T10:52:10.826Z,36.90
2018-06-03T10:53:11.670Z,37.60
2018-06-03T10:54:06.338Z,37.60
2018-06-03T10:55:06.436Z,38.20
2018-06-03T10:56:06.961Z,38.60
2018-06-03T10:57:08.810Z,38.90
2018-06-03T10:58:06.178Z,38.90
2018-06-03T10:59:06.285Z,38.60
2018-06-03T11:00:08.666Z,38.60
2018-06-03T11:01:11.273Z,38.10
2018-06-03T11:02:06.260Z,38.10
2018-06-03T11:03:06.657Z,38.40
2018-06-03T11:04:09.117Z,38.10
2018-06-03T11:05:13.287Z,37.70
2018-06-03T11:06:08.450Z,38.00
2018-06-03T11:07:06.046Z,38.10
2018-06-03T11:08:06.288Z,38.50
2018-06-03T11:09:06.285Z,38.40
2018-06-03T11:10:05.921Z,38.90
2018-06-03T11:11:08.693Z,38.40
2018-06-03T11:12:06.385Z,38.50
2018-06-03T11:13:07.064Z,39.00
2018-06-03T11:14:06.390Z,39.60
2018-06-03T11:15:11.096Z,39.70
2018-06-03T11:16:05.880Z,39.70
2018-06-03T11:17:05.612Z,38.50
2018-06-03T11:18:08.260Z,38.80
2018-06-03T11:19:05.820Z,38.80
2018-06-03T11:20:08.515Z,38.70
2018-06-03T11:21:06.086Z,38.70
2018-06-03T11:22:06.201Z,38.60
2018-06-03T11:23:05.892Z,38.30
2018-06-03T11:24:11.023Z,38.40
2018-06-03T11:25:14.937Z,37.90
2018-06-03T11:26:07.003Z,37.90
2018-06-03T11:27:06.148Z,37.60
2018-06-03T11:28:05.906Z,38.50
2018-06-03T11:29:08.108Z,38.80
2018-06-03T11:30:08.447Z,38.40
2018-06-03T11:31:11.118Z,38.10
2018-06-03T11:32:06.761Z,38.10
2018-06-03T11:33:06.450Z,38.40
2018-06-03T11:34:09.165Z,38.30
2018-06-03T11:35:08.298Z,37.50
2018-06-03T11:36:05.879Z,37.50
2018-06-03T11:37:08.643Z,37.70
2018-06-03T11:38:11.370Z,37.30
2018-06-03T11:39:06.369Z,37.90
2018-06-03T11:40:05.996Z,37.70
2018-06-03T11:41:06.047Z,38.60
2018-06-03T11:42:11.393Z,38.10
2018-06-03T11:43:11.343Z,37.20
2018-06-03T11:44:06.196Z,37.50
2018-06-03T11:45:05.739Z,37.90
2018-06-03T11:46:06.472Z,38.30
2018-06-03T11:47:06.387Z,38.10
2018-06-03T11:48:06.014Z,38.30
2018-06-03T11:49:10.936Z,37.20
2018-06-03T11:50:06.597Z,37.20
2018-06-03T11:51:06.180Z,36.40
2018-06-03T11:52:05.908Z,36.90
2018-06-03T11:53:05.676Z,35.80
2018-06-03T11:54:07.571Z,36.30
2018-06-03T11:55:06.577Z,36.50
2018-06-03T11:56:08.756Z,37.10
2018-06-03T11:57:09.151Z,36.90
2018-06-03T11:58:11.064Z,37.20
2018-06-03T11:59:05.718Z,37.20
2018-06-03T12:00:05.905Z,37.60
2018-06-03T12:01:05.931Z,37.80
2018-06-03T12:02:05.625Z,37.70
2018-06-03T12:03:05.637Z,37.80
2018-06-03T12:04:05.846Z,38.00
2018-06-03T12:05:05.616Z,38.00
2018-06-03T12:06:10.725Z,36.90
2018-06-03T12:07:06.736Z,37.00
2018-06-03T12:08:06.755Z,37.60
2018-06-03T12:09:11.117Z,37.70
2018-06-03T12:10:10.852Z,37.70
2018-06-03T12:11:06.468Z,37.50
2018-06-03T12:12:11.054Z,38.00
2018-06-03T12:13:05.454Z,38.00
2018-06-03T12:14:11.633Z,37.30
2018-06-03T12:15:08.737Z,37.20
2018-06-03T12:16:08.726Z,37.60
2018-06-03T12:17:06.251Z,37.60
2018-06-03T12:18:06.392Z,37.50
2018-06-03T12:19:06.319Z,37.40
2018-06-03T12:20:08.509Z,36.50
2018-06-03T12:21:06.185Z,36.50
2018-06-03T12:22:05.861Z,36.50
2018-06-03T12:23:05.697Z,35.80
2018-06-03T12:24:11.005Z,35.40
2018-06-03T12:25:15.712Z,35.80
2018-06-03T12:26:05.770Z,35.80
2018-06-03T12:27:06.067Z,35.70
2018-06-03T12:28:06.326Z,36.00
2018-06-03T12:29:06.045Z,36.20
2018-06-03T12:30:05.672Z,36.50
2018-06-03T12:31:06.343Z,36.20
2018-06-03T12:32:14.024Z,36.00
2018-06-03T12:33:05.808Z,36.00
2018-06-03T12:34:06.588Z,36.50
2018-06-03T12:35:08.448Z,36.10
2018-06-03T12:36:06.091Z,36.10
2018-06-03T12:37:06.436Z,35.60
2018-06-03T12:38:11.223Z,35.10
2018-06-03T12:39:08.284Z,35.40
2018-06-03T12:40:05.753Z,35.40
2018-06-03T12:41:11.578Z,35.20
2018-06-03T12:42:11.220Z,35.70
2018-06-03T12:43:05.762Z,35.70
2018-06-03T12:44:08.332Z,36.40
2018-06-03T12:45:09.097Z,36.70
2018-06-03T12:46:05.743Z,36.70
2018-06-03T12:47:05.881Z,36.70
2018-06-03T12:48:10.808Z,36.50
2018-06-03T12:49:11.477Z,36.30
2018-06-03T12:50:06.640Z,36.40
2018-06-03T12:51:06.834Z,36.60
2018-06-03T12:52:10.747Z,35.10